sensor_id;sensor_type;location;lat;lon;timestamp;P1;durP1;ratioP1;P2;durP2;ratioP2
75340;SDS011;64931;47.562;18.920;2023-03-23T00:01:15;8.50;;;3.70;;
75340;SDS011;64931;47.562;18.920;2023-03-23T00:03:45;7.00;;;3.40;;
75340;SDS011;64931;47.562;18.920;2023-03-23T00:06:12;6.50;;;3.60;;
75340;SDS011;64931;47.562;18.920;2023-03-23T00:08:43;7.10;;;3.30;;
75340;SDS011;64931;47.562;18.920;2023-03-23T00:11:13;6.40;;;3.40;;
75340;SDS011;64931;47.562;18.920;2023-03-23T00:13:47;6.40;;;3.10;;
75340;SDS011;64931;47.562;18.920;2023-03-23T00:16:18;6.00;;;3.50;;
75340;SDS011;64931;47.562;18.920;2023-03-23T00:18:55;7.90;;;3.60;;
75340;SDS011;64931;47.562;18.920;2023-03-23T00:21:22;7.80;;;3.20;;
75340;SDS011;64931;47.562;18.920;2023-03-23T00:23:58;7.00;;;3.90;;
75340;SDS011;64931;47.562;18.920;2023-03-23T00:26:28;9.10;;;4.00;;
75340;SDS011;64931;47.562;18.920;2023-03-23T00:28:59;7.80;;;3.60;;
75340;SDS011;64931;47.562;18.920;2023-03-23T00:31:25;6.60;;;3.50;;
75340;SDS011;64931;47.562;18.920;2023-03-23T00:33:56;7.80;;;3.90;;
75340;SDS011;64931;47.562;18.920;2023-03-23T00:36:23;7.10;;;4.10;;
75340;SDS011;64931;47.562;18.920;2023-03-23T00:38:49;8.00;;;3.80;;
75340;SDS011;64931;47.562;18.920;2023-03-23T00:41:15;6.90;;;3.80;;
75340;SDS011;64931;47.562;18.920;2023-03-23T00:43:40;7.10;;;4.00;;
75340;SDS011;64931;47.562;18.920;2023-03-23T00:46:05;6.90;;;3.70;;
75340;SDS011;64931;47.562;18.920;2023-03-23T00:48:35;6.80;;;3.20;;
75340;SDS011;64931;47.562;18.920;2023-03-23T00:51:02;6.50;;;3.60;;
75340;SDS011;64931;47.562;18.920;2023-03-23T00:53:31;7.30;;;3.40;;
75340;SDS011;64931;47.562;18.920;2023-03-23T00:55:57;6.50;;;3.30;;
75340;SDS011;64931;47.562;18.920;2023-03-23T00:58:23;7.20;;;3.30;;
75340;SDS011;64931;47.562;18.920;2023-03-23T01:00:48;6.30;;;3.10;;
75340;SDS011;64931;47.562;18.920;2023-03-23T01:03:14;7.00;;;3.50;;
75340;SDS011;64931;47.562;18.920;2023-03-23T01:05:43;5.50;;;3.00;;
75340;SDS011;64931;47.562;18.920;2023-03-23T01:08:12;6.80;;;3.10;;
75340;SDS011;64931;47.562;18.920;2023-03-23T01:10:38;5.60;;;3.30;;
75340;SDS011;64931;47.562;18.920;2023-03-23T01:13:04;6.30;;;3.10;;
75340;SDS011;64931;47.562;18.920;2023-03-23T01:15:31;6.00;;;3.40;;
75340;SDS011;64931;47.562;18.920;2023-03-23T01:17:56;6.50;;;3.50;;
75340;SDS011;64931;47.562;18.920;2023-03-23T01:20:22;5.10;;;2.90;;
75340;SDS011;64931;47.562;18.920;2023-03-23T01:22:48;5.80;;;2.80;;
75340;SDS011;64931;47.562;18.920;2023-03-23T01:25:14;5.70;;;3.40;;
75340;SDS011;64931;47.562;18.920;2023-03-23T01:27:40;5.70;;;3.00;;
75340;SDS011;64931;47.562;18.920;2023-03-23T01:30:07;5.60;;;2.80;;
75340;SDS011;64931;47.562;18.920;2023-03-23T01:32:35;5.80;;;3.10;;
75340;SDS011;64931;47.562;18.920;2023-03-23T01:35:00;5.70;;;3.10;;
75340;SDS011;64931;47.562;18.920;2023-03-23T01:37:26;5.60;;;2.90;;
75340;SDS011;64931;47.562;18.920;2023-03-23T01:39:55;5.50;;;3.00;;
75340;SDS011;64931;47.562;18.920;2023-03-23T01:42:22;5.20;;;2.80;;
75340;SDS011;64931;47.562;18.920;2023-03-23T01:47:14;6.30;;;3.10;;
75340;SDS011;64931;47.562;18.920;2023-03-23T01:49:41;6.20;;;3.50;;
75340;SDS011;64931;47.562;18.920;2023-03-23T01:52:14;5.60;;;3.40;;
75340;SDS011;64931;47.562;18.920;2023-03-23T01:54:46;6.10;;;3.40;;
75340;SDS011;64931;47.562;18.920;2023-03-23T01:57:13;6.60;;;3.60;;
75340;SDS011;64931;47.562;18.920;2023-03-23T01:59:42;6.40;;;3.30;;
75340;SDS011;64931;47.562;18.920;2023-03-23T02:04:36;5.20;;;3.10;;
75340;SDS011;64931;47.562;18.920;2023-03-23T02:07:02;7.10;;;3.50;;
75340;SDS011;64931;47.562;18.920;2023-03-23T02:09:28;6.60;;;3.10;;
75340;SDS011;64931;47.562;18.920;2023-03-23T02:11:53;5.70;;;3.30;;
75340;SDS011;64931;47.562;18.920;2023-03-23T02:14:20;6.60;;;3.30;;
75340;SDS011;64931;47.562;18.920;2023-03-23T02:16:55;6.40;;;3.40;;
75340;SDS011;64931;47.562;18.920;2023-03-23T02:28:06;5.60;;;3.00;;
75340;SDS011;64931;47.562;18.920;2023-03-23T02:35:53;4.70;;;2.50;;
75340;SDS011;64931;47.562;18.920;2023-03-23T02:38:32;5.70;;;3.10;;
75340;SDS011;64931;47.562;18.920;2023-03-23T02:41:24;5.90;;;3.30;;
75340;SDS011;64931;47.562;18.920;2023-03-23T02:43:55;5.20;;;3.10;;
75340;SDS011;64931;47.562;18.920;2023-03-23T02:46:21;5.00;;;2.90;;
75340;SDS011;64931;47.562;18.920;2023-03-23T02:48:47;5.60;;;2.90;;
75340;SDS011;64931;47.562;18.920;2023-03-23T02:51:16;4.40;;;2.50;;
75340;SDS011;64931;47.562;18.920;2023-03-23T02:53:43;5.80;;;3.10;;
75340;SDS011;64931;47.562;18.920;2023-03-23T02:56:09;5.30;;;3.00;;
75340;SDS011;64931;47.562;18.920;2023-03-23T02:58:36;5.10;;;3.00;;
75340;SDS011;64931;47.562;18.920;2023-03-23T03:01:16;5.50;;;2.90;;
75340;SDS011;64931;47.562;18.920;2023-03-23T03:03:58;6.90;;;3.10;;
75340;SDS011;64931;47.562;18.920;2023-03-23T03:11:46;8.30;;;3.40;;
75340;SDS011;64931;47.562;18.920;2023-03-23T03:14:19;5.70;;;3.30;;
75340;SDS011;64931;47.562;18.920;2023-03-23T03:17:32;18.40;;;3.50;;
75340;SDS011;64931;47.562;18.920;2023-03-23T03:19:59;5.60;;;3.10;;
75340;SDS011;64931;47.562;18.920;2023-03-23T03:22:36;6.00;;;3.20;;
75340;SDS011;64931;47.562;18.920;2023-03-23T03:25:03;5.40;;;3.10;;
75340;SDS011;64931;47.562;18.920;2023-03-23T03:27:30;6.00;;;3.40;;
75340;SDS011;64931;47.562;18.920;2023-03-23T03:29:57;8.40;;;3.40;;
75340;SDS011;64931;47.562;18.920;2023-03-23T03:32:26;6.70;;;2.90;;
75340;SDS011;64931;47.562;18.920;2023-03-23T03:35:00;5.00;;;2.70;;
75340;SDS011;64931;47.562;18.920;2023-03-23T03:37:26;5.00;;;2.60;;
75340;SDS011;64931;47.562;18.920;2023-03-23T03:39:51;5.10;;;2.90;;
75340;SDS011;64931;47.562;18.920;2023-03-23T03:42:17;5.50;;;3.10;;
75340;SDS011;64931;47.562;18.920;2023-03-23T03:44:42;5.80;;;2.90;;
75340;SDS011;64931;47.562;18.920;2023-03-23T03:47:08;6.10;;;3.20;;
75340;SDS011;64931;47.562;18.920;2023-03-23T03:49:33;5.60;;;3.00;;
75340;SDS011;64931;47.562;18.920;2023-03-23T03:52:00;9.50;;;3.10;;
75340;SDS011;64931;47.562;18.920;2023-03-23T03:54:25;5.70;;;3.10;;
75340;SDS011;64931;47.562;18.920;2023-03-23T03:56:51;6.10;;;2.70;;
75340;SDS011;64931;47.562;18.920;2023-03-23T03:59:17;5.40;;;3.00;;
75340;SDS011;64931;47.562;18.920;2023-03-23T04:01:42;4.60;;;2.70;;
75340;SDS011;64931;47.562;18.920;2023-03-23T04:04:08;5.10;;;2.60;;
75340;SDS011;64931;47.562;18.920;2023-03-23T04:06:33;5.20;;;2.60;;
75340;SDS011;64931;47.562;18.920;2023-03-23T04:09:02;4.80;;;2.50;;
75340;SDS011;64931;47.562;18.920;2023-03-23T04:11:31;4.80;;;2.40;;
75340;SDS011;64931;47.562;18.920;2023-03-23T04:13:56;4.90;;;2.80;;
75340;SDS011;64931;47.562;18.920;2023-03-23T04:16:22;4.90;;;2.60;;
75340;SDS011;64931;47.562;18.920;2023-03-23T04:18:47;4.60;;;2.30;;
75340;SDS011;64931;47.562;18.920;2023-03-23T04:21:13;5.80;;;2.90;;
75340;SDS011;64931;47.562;18.920;2023-03-23T04:23:39;4.70;;;2.70;;
75340;SDS011;64931;47.562;18.920;2023-03-23T04:26:05;4.80;;;2.50;;
75340;SDS011;64931;47.562;18.920;2023-03-23T04:28:31;5.20;;;3.00;;
75340;SDS011;64931;47.562;18.920;2023-03-23T04:30:58;4.40;;;2.60;;
75340;SDS011;64931;47.562;18.920;2023-03-23T04:33:25;4.80;;;2.50;;
75340;SDS011;64931;47.562;18.920;2023-03-23T04:35:53;4.80;;;2.80;;
75340;SDS011;64931;47.562;18.920;2023-03-23T04:38:21;4.50;;;2.50;;
75340;SDS011;64931;47.562;18.920;2023-03-23T04:40:49;5.90;;;3.30;;
75340;SDS011;64931;47.562;18.920;2023-03-23T04:43:20;4.70;;;2.30;;
75340;SDS011;64931;47.562;18.920;2023-03-23T04:45:52;6.40;;;2.90;;
75340;SDS011;64931;47.562;18.920;2023-03-23T04:48:22;6.30;;;3.20;;
75340;SDS011;64931;47.562;18.920;2023-03-23T04:50:48;6.40;;;3.20;;
75340;SDS011;64931;47.562;18.920;2023-03-23T04:53:15;6.60;;;3.30;;
75340;SDS011;64931;47.562;18.920;2023-03-23T04:55:43;6.80;;;3.10;;
75340;SDS011;64931;47.562;18.920;2023-03-23T04:58:08;6.20;;;3.00;;
75340;SDS011;64931;47.562;18.920;2023-03-23T05:00:35;7.90;;;3.70;;
75340;SDS011;64931;47.562;18.920;2023-03-23T05:03:04;6.70;;;3.40;;
75340;SDS011;64931;47.562;18.920;2023-03-23T05:05:29;5.60;;;3.00;;
75340;SDS011;64931;47.562;18.920;2023-03-23T05:07:55;7.00;;;3.60;;
75340;SDS011;64931;47.562;18.920;2023-03-23T05:10:22;6.90;;;3.40;;
75340;SDS011;64931;47.562;18.920;2023-03-23T05:12:47;7.70;;;3.60;;
75340;SDS011;64931;47.562;18.920;2023-03-23T05:15:14;6.10;;;3.40;;
75340;SDS011;64931;47.562;18.920;2023-03-23T05:17:40;9.70;;;3.90;;
75340;SDS011;64931;47.562;18.920;2023-03-23T05:20:12;14.50;;;4.00;;
75340;SDS011;64931;47.562;18.920;2023-03-23T05:22:39;5.80;;;3.30;;
75340;SDS011;64931;47.562;18.920;2023-03-23T05:25:06;6.40;;;3.30;;
75340;SDS011;64931;47.562;18.920;2023-03-23T05:29:59;13.80;;;6.60;;
75340;SDS011;64931;47.562;18.920;2023-03-23T05:32:26;14.80;;;10.40;;
75340;SDS011;64931;47.562;18.920;2023-03-23T05:34:59;11.30;;;9.30;;
75340;SDS011;64931;47.562;18.920;2023-03-23T05:37:27;7.70;;;4.90;;
75340;SDS011;64931;47.562;18.920;2023-03-23T05:39:57;9.10;;;5.20;;
75340;SDS011;64931;47.562;18.920;2023-03-23T05:42:26;6.90;;;4.40;;
75340;SDS011;64931;47.562;18.920;2023-03-23T05:44:52;7.60;;;4.60;;
75340;SDS011;64931;47.562;18.920;2023-03-23T05:47:18;7.30;;;4.80;;
75340;SDS011;64931;47.562;18.920;2023-03-23T05:49:43;7.50;;;4.40;;
75340;SDS011;64931;47.562;18.920;2023-03-23T05:52:09;6.90;;;4.30;;
75340;SDS011;64931;47.562;18.920;2023-03-23T05:54:35;8.80;;;4.90;;
75340;SDS011;64931;47.562;18.920;2023-03-23T05:57:01;8.30;;;4.40;;
75340;SDS011;64931;47.562;18.920;2023-03-23T05:59:26;8.70;;;5.30;;
75340;SDS011;64931;47.562;18.920;2023-03-23T06:01:52;7.90;;;4.70;;
75340;SDS011;64931;47.562;18.920;2023-03-23T06:04:20;7.20;;;4.10;;
75340;SDS011;64931;47.562;18.920;2023-03-23T06:06:50;7.00;;;4.40;;
75340;SDS011;64931;47.562;18.920;2023-03-23T06:09:19;12.50;;;7.30;;
75340;SDS011;64931;47.562;18.920;2023-03-23T06:11:45;8.10;;;4.50;;
75340;SDS011;64931;47.562;18.920;2023-03-23T06:14:10;7.00;;;4.70;;
75340;SDS011;64931;47.562;18.920;2023-03-23T06:16:37;6.80;;;4.10;;
75340;SDS011;64931;47.562;18.920;2023-03-23T06:19:03;6.80;;;3.90;;
75340;SDS011;64931;47.562;18.920;2023-03-23T06:21:32;7.70;;;3.90;;
75340;SDS011;64931;47.562;18.920;2023-03-23T06:23:58;7.50;;;4.20;;
75340;SDS011;64931;47.562;18.920;2023-03-23T06:26:28;8.50;;;4.50;;
75340;SDS011;64931;47.562;18.920;2023-03-23T06:28:56;6.40;;;3.90;;
75340;SDS011;64931;47.562;18.920;2023-03-23T06:31:22;6.40;;;4.00;;
75340;SDS011;64931;47.562;18.920;2023-03-23T06:33:48;5.60;;;3.60;;
75340;SDS011;64931;47.562;18.920;2023-03-23T06:36:14;6.70;;;3.80;;
75340;SDS011;64931;47.562;18.920;2023-03-23T06:38:39;6.80;;;3.80;;
75340;SDS011;64931;47.562;18.920;2023-03-23T06:41:04;6.60;;;3.50;;
75340;SDS011;64931;47.562;18.920;2023-03-23T06:43:30;6.40;;;4.20;;
75340;SDS011;64931;47.562;18.920;2023-03-23T06:45:58;6.70;;;3.60;;
75340;SDS011;64931;47.562;18.920;2023-03-23T06:48:24;6.90;;;4.20;;
75340;SDS011;64931;47.562;18.920;2023-03-23T06:50:50;6.20;;;3.70;;
75340;SDS011;64931;47.562;18.920;2023-03-23T06:53:15;6.80;;;3.70;;
75340;SDS011;64931;47.562;18.920;2023-03-23T06:55:42;6.10;;;3.50;;
75340;SDS011;64931;47.562;18.920;2023-03-23T06:58:08;6.30;;;4.00;;
75340;SDS011;64931;47.562;18.920;2023-03-23T07:00:34;5.90;;;3.50;;
75340;SDS011;64931;47.562;18.920;2023-03-23T07:02:59;5.40;;;2.90;;
75340;SDS011;64931;47.562;18.920;2023-03-23T07:05:26;4.90;;;2.80;;
75340;SDS011;64931;47.562;18.920;2023-03-23T07:07:52;5.10;;;2.80;;
75340;SDS011;64931;47.562;18.920;2023-03-23T07:10:17;5.60;;;3.10;;
75340;SDS011;64931;47.562;18.920;2023-03-23T07:12:42;5.40;;;3.00;;
75340;SDS011;64931;47.562;18.920;2023-03-23T07:15:08;5.40;;;3.10;;
75340;SDS011;64931;47.562;18.920;2023-03-23T07:17:36;6.00;;;2.70;;
75340;SDS011;64931;47.562;18.920;2023-03-23T07:20:02;5.00;;;2.90;;
75340;SDS011;64931;47.562;18.920;2023-03-23T07:22:28;5.20;;;3.10;;
75340;SDS011;64931;47.562;18.920;2023-03-23T07:24:53;5.60;;;3.30;;
75340;SDS011;64931;47.562;18.920;2023-03-23T07:27:21;5.20;;;3.20;;
75340;SDS011;64931;47.562;18.920;2023-03-23T07:29:47;6.00;;;3.00;;
75340;SDS011;64931;47.562;18.920;2023-03-23T07:32:15;5.20;;;3.30;;
75340;SDS011;64931;47.562;18.920;2023-03-23T07:34:41;5.10;;;2.70;;
75340;SDS011;64931;47.562;18.920;2023-03-23T07:37:06;6.50;;;3.00;;
75340;SDS011;64931;47.562;18.920;2023-03-23T07:39:32;4.70;;;2.70;;
75340;SDS011;64931;47.562;18.920;2023-03-23T07:41:58;5.60;;;3.10;;
75340;SDS011;64931;47.562;18.920;2023-03-23T07:44:24;5.90;;;3.30;;
75340;SDS011;64931;47.562;18.920;2023-03-23T07:46:50;7.20;;;3.80;;
75340;SDS011;64931;47.562;18.920;2023-03-23T07:49:16;5.70;;;3.50;;
75340;SDS011;64931;47.562;18.920;2023-03-23T07:51:42;8.30;;;3.60;;
75340;SDS011;64931;47.562;18.920;2023-03-23T07:54:08;5.50;;;3.00;;
75340;SDS011;64931;47.562;18.920;2023-03-23T07:56:34;6.30;;;3.90;;
75340;SDS011;64931;47.562;18.920;2023-03-23T07:59:01;8.30;;;3.30;;
75340;SDS011;64931;47.562;18.920;2023-03-23T08:01:27;9.00;;;4.00;;
75340;SDS011;64931;47.562;18.920;2023-03-23T08:03:53;6.70;;;3.80;;
75340;SDS011;64931;47.562;18.920;2023-03-23T08:08:47;6.20;;;3.80;;
75340;SDS011;64931;47.562;18.920;2023-03-23T08:11:12;7.40;;;3.70;;
75340;SDS011;64931;47.562;18.920;2023-03-23T08:13:40;9.00;;;4.40;;
75340;SDS011;64931;47.562;18.920;2023-03-23T08:16:09;5.60;;;3.50;;
75340;SDS011;64931;47.562;18.920;2023-03-23T08:18:35;5.70;;;3.40;;
75340;SDS011;64931;47.562;18.920;2023-03-23T08:21:02;5.70;;;3.50;;
75340;SDS011;64931;47.562;18.920;2023-03-23T08:23:30;5.90;;;3.70;;
75340;SDS011;64931;47.562;18.920;2023-03-23T08:25:56;8.70;;;3.40;;
75340;SDS011;64931;47.562;18.920;2023-03-23T08:28:22;5.50;;;3.20;;
75340;SDS011;64931;47.562;18.920;2023-03-23T08:30:47;6.80;;;4.20;;
75340;SDS011;64931;47.562;18.920;2023-03-23T08:33:13;7.60;;;4.10;;
75340;SDS011;64931;47.562;18.920;2023-03-23T08:35:39;7.10;;;3.90;;
75340;SDS011;64931;47.562;18.920;2023-03-23T08:38:05;6.60;;;3.40;;
75340;SDS011;64931;47.562;18.920;2023-03-23T08:40:31;8.20;;;3.40;;
75340;SDS011;64931;47.562;18.920;2023-03-23T08:42:57;7.10;;;3.80;;
75340;SDS011;64931;47.562;18.920;2023-03-23T08:45:24;7.00;;;4.00;;
75340;SDS011;64931;47.562;18.920;2023-03-23T08:47:50;7.70;;;3.60;;
75340;SDS011;64931;47.562;18.920;2023-03-23T08:50:18;7.30;;;4.10;;
75340;SDS011;64931;47.562;18.920;2023-03-23T08:52:45;7.60;;;4.20;;
75340;SDS011;64931;47.562;18.920;2023-03-23T08:55:12;6.90;;;4.40;;
75340;SDS011;64931;47.562;18.920;2023-03-23T08:57:38;7.20;;;3.90;;
75340;SDS011;64931;47.562;18.920;2023-03-23T09:00:05;7.50;;;3.70;;
75340;SDS011;64931;47.562;18.920;2023-03-23T09:02:44;5.80;;;3.70;;
75340;SDS011;64931;47.562;18.920;2023-03-23T09:05:12;8.00;;;4.10;;
75340;SDS011;64931;47.562;18.920;2023-03-23T09:07:39;6.40;;;3.70;;
75340;SDS011;64931;47.562;18.920;2023-03-23T09:10:07;8.30;;;4.30;;
75340;SDS011;64931;47.562;18.920;2023-03-23T09:12:34;7.10;;;4.60;;
75340;SDS011;64931;47.562;18.920;2023-03-23T09:15:00;6.80;;;4.50;;
75340;SDS011;64931;47.562;18.920;2023-03-23T09:17:30;7.30;;;4.30;;
75340;SDS011;64931;47.562;18.920;2023-03-23T09:19:56;6.60;;;3.80;;
75340;SDS011;64931;47.562;18.920;2023-03-23T09:22:21;5.90;;;3.50;;
75340;SDS011;64931;47.562;18.920;2023-03-23T09:24:48;6.30;;;4.30;;
75340;SDS011;64931;47.562;18.920;2023-03-23T09:27:16;8.10;;;4.80;;
75340;SDS011;64931;47.562;18.920;2023-03-23T09:29:42;7.90;;;4.30;;
75340;SDS011;64931;47.562;18.920;2023-03-23T09:32:09;9.20;;;4.40;;
75340;SDS011;64931;47.562;18.920;2023-03-23T09:34:35;9.40;;;4.70;;
75340;SDS011;64931;47.562;18.920;2023-03-23T09:37:01;7.40;;;3.60;;
75340;SDS011;64931;47.562;18.920;2023-03-23T09:39:29;7.50;;;4.80;;
75340;SDS011;64931;47.562;18.920;2023-03-23T09:47:09;8.80;;;5.50;;
75340;SDS011;64931;47.562;18.920;2023-03-23T09:49:41;8.20;;;5.30;;
75340;SDS011;64931;47.562;18.920;2023-03-23T09:52:13;8.10;;;5.30;;
75340;SDS011;64931;47.562;18.920;2023-03-23T09:54:41;7.80;;;5.10;;
75340;SDS011;64931;47.562;18.920;2023-03-23T09:57:14;8.60;;;5.10;;
75340;SDS011;64931;47.562;18.920;2023-03-23T10:00:03;9.60;;;5.50;;
75340;SDS011;64931;47.562;18.920;2023-03-23T10:05:52;8.50;;;5.20;;
75340;SDS011;64931;47.562;18.920;2023-03-23T10:07:58;8.90;;;5.70;;
75340;SDS011;64931;47.562;18.920;2023-03-23T10:10:48;10.20;;;5.00;;
75340;SDS011;64931;47.562;18.920;2023-03-23T10:13:46;7.70;;;4.80;;
75340;SDS011;64931;47.562;18.920;2023-03-23T10:16:28;8.30;;;5.10;;
75340;SDS011;64931;47.562;18.920;2023-03-23T10:21:30;8.70;;;5.70;;
75340;SDS011;64931;47.562;18.920;2023-03-23T10:24:01;9.60;;;6.30;;
75340;SDS011;64931;47.562;18.920;2023-03-23T10:29:37;9.70;;;5.70;;
75340;SDS011;64931;47.562;18.920;2023-03-23T10:32:10;9.40;;;6.30;;
75340;SDS011;64931;47.562;18.920;2023-03-23T10:34:44;9.90;;;7.10;;
75340;SDS011;64931;47.562;18.920;2023-03-23T10:37:13;9.20;;;5.80;;
75340;SDS011;64931;47.562;18.920;2023-03-23T10:39:52;12.30;;;6.00;;
75340;SDS011;64931;47.562;18.920;2023-03-23T10:42:26;11.00;;;6.50;;
75340;SDS011;64931;47.562;18.920;2023-03-23T10:44:53;9.40;;;7.00;;
75340;SDS011;64931;47.562;18.920;2023-03-23T10:47:19;11.70;;;6.30;;
75340;SDS011;64931;47.562;18.920;2023-03-23T10:49:53;13.50;;;7.80;;
75340;SDS011;64931;47.562;18.920;2023-03-23T10:55:12;10.90;;;7.40;;
75340;SDS011;64931;47.562;18.920;2023-03-23T10:57:42;11.10;;;7.90;;
75340;SDS011;64931;47.562;18.920;2023-03-23T11:02:46;10.30;;;7.10;;
75340;SDS011;64931;47.562;18.920;2023-03-23T11:05:18;11.40;;;7.30;;
75340;SDS011;64931;47.562;18.920;2023-03-23T11:07:53;12.00;;;7.40;;
75340;SDS011;64931;47.562;18.920;2023-03-23T11:10:23;9.90;;;6.60;;
75340;SDS011;64931;47.562;18.920;2023-03-23T11:12:51;9.70;;;7.40;;
75340;SDS011;64931;47.562;18.920;2023-03-23T11:15:32;10.00;;;6.50;;
75340;SDS011;64931;47.562;18.920;2023-03-23T11:18:04;10.60;;;6.90;;
75340;SDS011;64931;47.562;18.920;2023-03-23T11:20:35;10.00;;;6.40;;
75340;SDS011;64931;47.562;18.920;2023-03-23T11:23:10;7.80;;;5.10;;
75340;SDS011;64931;47.562;18.920;2023-03-23T11:25:51;9.30;;;5.10;;
75340;SDS011;64931;47.562;18.920;2023-03-23T11:28:43;5.30;;;3.60;;
75340;SDS011;64931;47.562;18.920;2023-03-23T11:31:11;7.70;;;3.20;;
75340;SDS011;64931;47.562;18.920;2023-03-23T11:33:57;5.80;;;3.00;;
75340;SDS011;64931;47.562;18.920;2023-03-23T11:36:53;6.00;;;3.20;;
75340;SDS011;64931;47.562;18.920;2023-03-23T11:42:18;6.30;;;3.20;;
75340;SDS011;64931;47.562;18.920;2023-03-23T11:44:46;5.00;;;2.90;;
75340;SDS011;64931;47.562;18.920;2023-03-23T11:47:26;4.60;;;3.00;;
75340;SDS011;64931;47.562;18.920;2023-03-23T11:55:18;4.20;;;2.40;;
75340;SDS011;64931;47.562;18.920;2023-03-23T11:57:46;4.50;;;2.50;;
75340;SDS011;64931;47.562;18.920;2023-03-23T12:00:21;4.40;;;2.40;;
75340;SDS011;64931;47.562;18.920;2023-03-23T12:02:56;6.30;;;2.90;;
75340;SDS011;64931;47.562;18.920;2023-03-23T12:28:03;7.60;;;2.60;;
75340;SDS011;64931;47.562;18.920;2023-03-23T12:30:55;5.00;;;2.80;;
75340;SDS011;64931;47.562;18.920;2023-03-23T12:36:23;4.40;;;2.50;;
75340;SDS011;64931;47.562;18.920;2023-03-23T12:39:25;6.40;;;2.70;;
75340;SDS011;64931;47.562;18.920;2023-03-23T12:42:17;3.80;;;2.10;;
75340;SDS011;64931;47.562;18.920;2023-03-23T12:45:43;5.00;;;2.70;;
75340;SDS011;64931;47.562;18.920;2023-03-23T12:47:56;6.10;;;2.30;;
75340;SDS011;64931;47.562;18.920;2023-03-23T12:53:20;4.70;;;2.60;;
75340;SDS011;64931;47.562;18.920;2023-03-23T12:58:34;4.20;;;2.80;;
75340;SDS011;64931;47.562;18.920;2023-03-23T13:06:34;7.00;;;2.50;;
75340;SDS011;64931;47.562;18.920;2023-03-23T13:11:34;3.80;;;2.30;;
75340;SDS011;64931;47.562;18.920;2023-03-23T13:14:14;4.90;;;2.30;;
75340;SDS011;64931;47.562;18.920;2023-03-23T13:16:56;9.30;;;2.70;;
75340;SDS011;64931;47.562;18.920;2023-03-23T13:19:31;6.00;;;2.70;;
75340;SDS011;64931;47.562;18.920;2023-03-23T13:22:05;4.40;;;2.90;;
75340;SDS011;64931;47.562;18.920;2023-03-23T13:24:36;5.60;;;2.90;;
75340;SDS011;64931;47.562;18.920;2023-03-23T13:29:43;6.40;;;2.60;;
75340;SDS011;64931;47.562;18.920;2023-03-23T13:32:15;3.80;;;2.20;;
75340;SDS011;64931;47.562;18.920;2023-03-23T13:34:42;4.60;;;2.40;;
75340;SDS011;64931;47.562;18.920;2023-03-23T13:37:29;4.50;;;2.40;;
75340;SDS011;64931;47.562;18.920;2023-03-23T13:39:58;3.40;;;2.20;;
75340;SDS011;64931;47.562;18.920;2023-03-23T13:53:35;5.90;;;2.80;;
75340;SDS011;64931;47.562;18.920;2023-03-23T13:56:19;4.30;;;2.50;;
75340;SDS011;64931;47.562;18.920;2023-03-23T13:58:47;6.20;;;2.70;;
75340;SDS011;64931;47.562;18.920;2023-03-23T14:01:35;4.60;;;2.70;;
75340;SDS011;64931;47.562;18.920;2023-03-23T14:04:04;6.30;;;2.80;;
75340;SDS011;64931;47.562;18.920;2023-03-23T14:06:34;4.80;;;2.40;;
75340;SDS011;64931;47.562;18.920;2023-03-23T14:09:05;4.20;;;2.50;;
75340;SDS011;64931;47.562;18.920;2023-03-23T14:12:02;5.50;;;2.50;;
75340;SDS011;64931;47.562;18.920;2023-03-23T14:17:28;4.60;;;2.60;;
75340;SDS011;64931;47.562;18.920;2023-03-23T14:19:55;4.80;;;2.70;;
75340;SDS011;64931;47.562;18.920;2023-03-23T14:24:48;4.20;;;2.50;;
75340;SDS011;64931;47.562;18.920;2023-03-23T14:27:15;3.80;;;2.40;;
75340;SDS011;64931;47.562;18.920;2023-03-23T14:29:42;3.80;;;2.50;;
75340;SDS011;64931;47.562;18.920;2023-03-23T14:32:12;6.00;;;2.60;;
75340;SDS011;64931;47.562;18.920;2023-03-23T14:34:40;3.50;;;2.00;;
75340;SDS011;64931;47.562;18.920;2023-03-23T14:37:08;5.30;;;2.60;;
75340;SDS011;64931;47.562;18.920;2023-03-23T14:39:36;5.20;;;2.40;;
75340;SDS011;64931;47.562;18.920;2023-03-23T14:42:03;4.20;;;2.60;;
75340;SDS011;64931;47.562;18.920;2023-03-23T14:44:33;4.00;;;2.50;;
75340;SDS011;64931;47.562;18.920;2023-03-23T14:47:04;4.30;;;2.20;;
75340;SDS011;64931;47.562;18.920;2023-03-23T14:49:34;3.80;;;2.10;;
75340;SDS011;64931;47.562;18.920;2023-03-23T14:52:08;4.10;;;2.40;;
75340;SDS011;64931;47.562;18.920;2023-03-23T14:54:39;5.40;;;2.50;;
75340;SDS011;64931;47.562;18.920;2023-03-23T14:57:14;3.90;;;2.40;;
75340;SDS011;64931;47.562;18.920;2023-03-23T14:59:53;4.80;;;2.40;;
75340;SDS011;64931;47.562;18.920;2023-03-23T15:05:08;6.30;;;2.80;;
75340;SDS011;64931;47.562;18.920;2023-03-23T15:07:40;4.30;;;2.40;;
75340;SDS011;64931;47.562;18.920;2023-03-23T15:12:35;4.90;;;2.60;;
75340;SDS011;64931;47.562;18.920;2023-03-23T15:15:02;5.60;;;2.70;;
75340;SDS011;64931;47.562;18.920;2023-03-23T15:17:34;5.20;;;2.50;;
75340;SDS011;64931;47.562;18.920;2023-03-23T15:20:08;4.90;;;2.20;;
75340;SDS011;64931;47.562;18.920;2023-03-23T15:22:44;5.20;;;2.30;;
75340;SDS011;64931;47.562;18.920;2023-03-23T15:25:12;5.40;;;2.40;;
75340;SDS011;64931;47.562;18.920;2023-03-23T15:27:43;4.00;;;2.40;;
75340;SDS011;64931;47.562;18.920;2023-03-23T15:30:16;5.00;;;2.40;;
75340;SDS011;64931;47.562;18.920;2023-03-23T15:32:47;5.60;;;2.50;;
75340;SDS011;64931;47.562;18.920;2023-03-23T15:35:17;4.40;;;2.60;;
75340;SDS011;64931;47.562;18.920;2023-03-23T15:37:46;7.80;;;2.30;;
75340;SDS011;64931;47.562;18.920;2023-03-23T15:40:20;4.30;;;2.30;;
75340;SDS011;64931;47.562;18.920;2023-03-23T15:42:47;5.40;;;2.80;;
75340;SDS011;64931;47.562;18.920;2023-03-23T15:45:24;4.10;;;2.40;;
75340;SDS011;64931;47.562;18.920;2023-03-23T15:48:18;6.80;;;2.70;;
75340;SDS011;64931;47.562;18.920;2023-03-23T15:50:46;5.20;;;2.60;;
75340;SDS011;64931;47.562;18.920;2023-03-23T15:53:25;4.90;;;2.60;;
75340;SDS011;64931;47.562;18.920;2023-03-23T15:55:53;5.40;;;2.70;;
75340;SDS011;64931;47.562;18.920;2023-03-23T15:58:18;5.60;;;2.40;;
75340;SDS011;64931;47.562;18.920;2023-03-23T16:00:44;7.70;;;2.50;;
75340;SDS011;64931;47.562;18.920;2023-03-23T16:03:12;6.80;;;2.80;;
75340;SDS011;64931;47.562;18.920;2023-03-23T16:05:48;5.40;;;2.60;;
75340;SDS011;64931;47.562;18.920;2023-03-23T16:08:14;5.60;;;2.70;;
75340;SDS011;64931;47.562;18.920;2023-03-23T16:10:40;5.10;;;2.50;;
75340;SDS011;64931;47.562;18.920;2023-03-23T16:13:06;6.10;;;2.40;;
75340;SDS011;64931;47.562;18.920;2023-03-23T16:15:31;6.30;;;2.60;;
75340;SDS011;64931;47.562;18.920;2023-03-23T16:17:57;4.80;;;2.40;;
75340;SDS011;64931;47.562;18.920;2023-03-23T16:20:23;6.20;;;2.60;;
75340;SDS011;64931;47.562;18.920;2023-03-23T16:22:50;4.90;;;2.50;;
75340;SDS011;64931;47.562;18.920;2023-03-23T16:25:16;6.60;;;2.70;;
75340;SDS011;64931;47.562;18.920;2023-03-23T16:27:43;5.60;;;2.60;;
75340;SDS011;64931;47.562;18.920;2023-03-23T16:32:39;10.80;;;6.00;;
75340;SDS011;64931;47.562;18.920;2023-03-23T16:35:05;8.20;;;4.00;;
75340;SDS011;64931;47.562;18.920;2023-03-23T16:37:31;8.30;;;3.70;;
75340;SDS011;64931;47.562;18.920;2023-03-23T16:39:58;10.50;;;3.80;;
75340;SDS011;64931;47.562;18.920;2023-03-23T16:42:23;7.60;;;3.70;;
75340;SDS011;64931;47.562;18.920;2023-03-23T16:44:49;7.80;;;4.00;;
75340;SDS011;64931;47.562;18.920;2023-03-23T16:47:15;7.50;;;4.30;;
75340;SDS011;64931;47.562;18.920;2023-03-23T16:52:08;7.50;;;3.70;;